sensor_id;sensor_type;location;lat;lon;timestamp;P1;durP1;ratioP1;P2;durP2;ratioP2
20318;SDS011;10317;47.254;11.314;2023-09-30T00:01:00;5.10;;;3.40;;
20318;SDS011;10317;47.254;11.314;2023-09-30T00:03:27;5.18;;;3.58;;
20318;SDS011;10317;47.254;11.314;2023-09-30T00:05:53;5.13;;;3.45;;
20318;SDS011;10317;47.254;11.314;2023-09-30T00:08:19;5.15;;;3.50;;
20318;SDS011;10317;47.254;11.314;2023-09-30T00:10:45;3.58;;;3.28;;
20318;SDS011;10317;47.254;11.314;2023-09-30T00:13:11;4.55;;;3.22;;
20318;SDS011;10317;47.254;11.314;2023-09-30T00:15:37;6.15;;;3.25;;
20318;SDS011;10317;47.254;11.314;2023-09-30T00:18:03;4.05;;;3.38;;
20318;SDS011;10317;47.254;11.314;2023-09-30T00:20:30;5.22;;;3.40;;
20318;SDS011;10317;47.254;11.314;2023-09-30T00:22:56;4.75;;;3.17;;
20318;SDS011;10317;47.254;11.314;2023-09-30T00:25:21;3.42;;;3.08;;
20318;SDS011;10317;47.254;11.314;2023-09-30T00:27:47;4.35;;;3.58;;
20318;SDS011;10317;47.254;11.314;2023-09-30T00:30:13;4.72;;;3.17;;
20318;SDS011;10317;47.254;11.314;2023-09-30T00:32:39;6.05;;;3.47;;
20318;SDS011;10317;47.254;11.314;2023-09-30T00:35:05;5.55;;;3.53;;
20318;SDS011;10317;47.254;11.314;2023-09-30T00:37:41;4.10;;;3.38;;
20318;SDS011;10317;47.254;11.314;2023-09-30T00:40:07;4.50;;;3.67;;
20318;SDS011;10317;47.254;11.314;2023-09-30T00:42:40;4.05;;;3.45;;
20318;SDS011;10317;47.254;11.314;2023-09-30T00:45:06;4.38;;;3.67;;
20318;SDS011;10317;47.254;11.314;2023-09-30T00:47:34;6.20;;;3.97;;
20318;SDS011;10317;47.254;11.314;2023-09-30T00:50:02;4.63;;;3.35;;
20318;SDS011;10317;47.254;11.314;2023-09-30T00:52:29;7.15;;;3.85;;
20318;SDS011;10317;47.254;11.314;2023-09-30T00:54:56;4.13;;;3.42;;
20318;SDS011;10317;47.254;11.314;2023-09-30T00:57:23;8.93;;;3.22;;
20318;SDS011;10317;47.254;11.314;2023-09-30T00:59:50;9.10;;;3.47;;
20318;SDS011;10317;47.254;11.314;2023-09-30T01:02:17;5.53;;;3.38;;
20318;SDS011;10317;47.254;11.314;2023-09-30T01:04:43;3.63;;;3.33;;
20318;SDS011;10317;47.254;11.314;2023-09-30T01:07:10;6.22;;;3.70;;
20318;SDS011;10317;47.254;11.314;2023-09-30T01:09:36;5.35;;;3.70;;
20318;SDS011;10317;47.254;11.314;2023-09-30T01:12:03;3.20;;;2.97;;
20318;SDS011;10317;47.254;11.314;2023-09-30T01:14:30;4.95;;;3.42;;
20318;SDS011;10317;47.254;11.314;2023-09-30T01:16:56;4.70;;;3.20;;
20318;SDS011;10317;47.254;11.314;2023-09-30T01:19:23;4.93;;;3.80;;
20318;SDS011;10317;47.254;11.314;2023-09-30T01:21:53;5.65;;;3.95;;
20318;SDS011;10317;47.254;11.314;2023-09-30T01:24:21;6.70;;;3.50;;
20318;SDS011;10317;47.254;11.314;2023-09-30T01:26:47;4.40;;;3.42;;
20318;SDS011;10317;47.254;11.314;2023-09-30T01:29:13;4.25;;;3.85;;
20318;SDS011;10317;47.254;11.314;2023-09-30T01:31:39;7.13;;;4.22;;
20318;SDS011;10317;47.254;11.314;2023-09-30T01:34:05;11.13;;;4.18;;
20318;SDS011;10317;47.254;11.314;2023-09-30T01:36:31;3.88;;;3.50;;
20318;SDS011;10317;47.254;11.314;2023-09-30T01:38:57;6.32;;;3.80;;
20318;SDS011;10317;47.254;11.314;2023-09-30T01:41:22;4.72;;;3.85;;
20318;SDS011;10317;47.254;11.314;2023-09-30T01:43:48;8.65;;;3.80;;
20318;SDS011;10317;47.254;11.314;2023-09-30T01:46:14;5.28;;;3.70;;
20318;SDS011;10317;47.254;11.314;2023-09-30T01:48:40;6.22;;;3.83;;
20318;SDS011;10317;47.254;11.314;2023-09-30T01:51:06;3.88;;;3.50;;
20318;SDS011;10317;47.254;11.314;2023-09-30T01:53:32;4.45;;;3.92;;
20318;SDS011;10317;47.254;11.314;2023-09-30T01:55:58;5.13;;;4.03;;
20318;SDS011;10317;47.254;11.314;2023-09-30T01:58:24;5.78;;;4.35;;
20318;SDS011;10317;47.254;11.314;2023-09-30T02:00:51;7.32;;;4.32;;
20318;SDS011;10317;47.254;11.314;2023-09-30T02:03:17;6.45;;;4.15;;
20318;SDS011;10317;47.254;11.314;2023-09-30T02:05:43;5.20;;;3.90;;
20318;SDS011;10317;47.254;11.314;2023-09-30T02:08:09;7.45;;;4.32;;
20318;SDS011;10317;47.254;11.314;2023-09-30T02:10:34;6.82;;;3.95;;
20318;SDS011;10317;47.254;11.314;2023-09-30T02:13:00;5.38;;;3.75;;
20318;SDS011;10317;47.254;11.314;2023-09-30T02:15:26;4.43;;;3.92;;
20318;SDS011;10317;47.254;11.314;2023-09-30T02:17:52;4.70;;;3.60;;
20318;SDS011;10317;47.254;11.314;2023-09-30T02:20:18;6.05;;;4.43;;
20318;SDS011;10317;47.254;11.314;2023-09-30T02:22:50;6.53;;;3.97;;
20318;SDS011;10317;47.254;11.314;2023-09-30T02:25:17;4.25;;;3.85;;
20318;SDS011;10317;47.254;11.314;2023-09-30T02:27:43;5.25;;;4.03;;
20318;SDS011;10317;47.254;11.314;2023-09-30T02:30:10;4.57;;;3.58;;
20318;SDS011;10317;47.254;11.314;2023-09-30T02:32:39;3.80;;;3.50;;
20318;SDS011;10317;47.254;11.314;2023-09-30T02:35:06;7.45;;;4.63;;
20318;SDS011;10317;47.254;11.314;2023-09-30T02:37:33;6.07;;;3.95;;
20318;SDS011;10317;47.254;11.314;2023-09-30T02:40:05;6.07;;;4.13;;
20318;SDS011;10317;47.254;11.314;2023-09-30T02:42:34;4.22;;;3.85;;
20318;SDS011;10317;47.254;11.314;2023-09-30T02:45:02;6.05;;;4.32;;
20318;SDS011;10317;47.254;11.314;2023-09-30T02:47:28;5.95;;;3.70;;
20318;SDS011;10317;47.254;11.314;2023-09-30T02:49:55;4.80;;;4.20;;
20318;SDS011;10317;47.254;11.314;2023-09-30T02:52:22;7.45;;;4.30;;
20318;SDS011;10317;47.254;11.314;2023-09-30T02:54:47;5.25;;;4.53;;
20318;SDS011;10317;47.254;11.314;2023-09-30T02:57:14;7.15;;;4.50;;
20318;SDS011;10317;47.254;11.314;2023-09-30T02:59:40;5.35;;;4.35;;
20318;SDS011;10317;47.254;11.314;2023-09-30T03:02:07;5.32;;;4.57;;
20318;SDS011;10317;47.254;11.314;2023-09-30T03:04:33;6.30;;;4.93;;
20318;SDS011;10317;47.254;11.314;2023-09-30T03:06:58;6.97;;;4.93;;
20318;SDS011;10317;47.254;11.314;2023-09-30T03:09:24;5.78;;;5.18;;
20318;SDS011;10317;47.254;11.314;2023-09-30T03:11:51;6.72;;;4.80;;
20318;SDS011;10317;47.254;11.314;2023-09-30T03:14:16;5.05;;;4.55;;
20318;SDS011;10317;47.254;11.314;2023-09-30T03:16:43;6.47;;;4.43;;
20318;SDS011;10317;47.254;11.314;2023-09-30T03:19:09;5.07;;;4.15;;
20318;SDS011;10317;47.254;11.314;2023-09-30T03:21:36;4.85;;;4.40;;
20318;SDS011;10317;47.254;11.314;2023-09-30T03:24:03;5.07;;;4.50;;
20318;SDS011;10317;47.254;11.314;2023-09-30T03:26:29;6.40;;;4.05;;
20318;SDS011;10317;47.254;11.314;2023-09-30T03:28:55;6.20;;;4.47;;
20318;SDS011;10317;47.254;11.314;2023-09-30T03:31:21;5.07;;;4.43;;
20318;SDS011;10317;47.254;11.314;2023-09-30T03:33:48;6.40;;;3.65;;
20318;SDS011;10317;47.254;11.314;2023-09-30T03:36:21;7.10;;;4.15;;
20318;SDS011;10317;47.254;11.314;2023-09-30T03:38:51;9.77;;;3.92;;
20318;SDS011;10317;47.254;11.314;2023-09-30T03:41:20;6.43;;;4.18;;
20318;SDS011;10317;47.254;11.314;2023-09-30T03:43:45;5.65;;;4.05;;
20318;SDS011;10317;47.254;11.314;2023-09-30T03:46:12;6.25;;;3.97;;
20318;SDS011;10317;47.254;11.314;2023-09-30T03:48:38;6.10;;;4.35;;
20318;SDS011;10317;47.254;11.314;2023-09-30T03:51:11;6.53;;;3.85;;
20318;SDS011;10317;47.254;11.314;2023-09-30T03:53:43;4.28;;;3.80;;
20318;SDS011;10317;47.254;11.314;2023-09-30T03:56:11;6.32;;;4.22;;
20318;SDS011;10317;47.254;11.314;2023-09-30T03:58:38;7.43;;;4.03;;
20318;SDS011;10317;47.254;11.314;2023-09-30T04:01:11;3.95;;;3.55;;
20318;SDS011;10317;47.254;11.314;2023-09-30T04:03:38;4.43;;;3.63;;
20318;SDS011;10317;47.254;11.314;2023-09-30T04:06:08;6.72;;;4.50;;
20318;SDS011;10317;47.254;11.314;2023-09-30T04:08:34;6.03;;;3.95;;
20318;SDS011;10317;47.254;11.314;2023-09-30T04:11:00;6.32;;;4.05;;
20318;SDS011;10317;47.254;11.314;2023-09-30T04:13:28;7.55;;;4.40;;
20318;SDS011;10317;47.254;11.314;2023-09-30T04:15:54;5.38;;;3.95;;
20318;SDS011;10317;47.254;11.314;2023-09-30T04:18:21;4.93;;;4.00;;
20318;SDS011;10317;47.254;11.314;2023-09-30T04:20:47;7.05;;;3.58;;
20318;SDS011;10317;47.254;11.314;2023-09-30T04:23:13;4.30;;;3.50;;
20318;SDS011;10317;47.254;11.314;2023-09-30T04:25:40;4.47;;;4.18;;
20318;SDS011;10317;47.254;11.314;2023-09-30T04:28:07;8.52;;;4.13;;
20318;SDS011;10317;47.254;11.314;2023-09-30T04:30:34;7.38;;;4.13;;
20318;SDS011;10317;47.254;11.314;2023-09-30T04:33:00;6.10;;;4.75;;
20318;SDS011;10317;47.254;11.314;2023-09-30T04:35:29;5.75;;;4.32;;
20318;SDS011;10317;47.254;11.314;2023-09-30T04:37:56;5.00;;;4.50;;
20318;SDS011;10317;47.254;11.314;2023-09-30T04:40:26;6.85;;;3.65;;
20318;SDS011;10317;47.254;11.314;2023-09-30T04:42:52;6.15;;;3.67;;
20318;SDS011;10317;47.254;11.314;2023-09-30T04:45:20;4.70;;;3.95;;
20318;SDS011;10317;47.254;11.314;2023-09-30T04:47:46;6.93;;;4.30;;
20318;SDS011;10317;47.254;11.314;2023-09-30T04:50:14;5.10;;;3.72;;
20318;SDS011;10317;47.254;11.314;2023-09-30T04:52:40;4.38;;;3.97;;
20318;SDS011;10317;47.254;11.314;2023-09-30T04:55:06;4.47;;;3.83;;
20318;SDS011;10317;47.254;11.314;2023-09-30T04:57:33;6.00;;;4.05;;
20318;SDS011;10317;47.254;11.314;2023-09-30T04:59:58;8.88;;;4.60;;
20318;SDS011;10317;47.254;11.314;2023-09-30T05:02:24;5.75;;;4.03;;
20318;SDS011;10317;47.254;11.314;2023-09-30T05:04:53;4.18;;;3.70;;
20318;SDS011;10317;47.254;11.314;2023-09-30T05:07:19;7.05;;;4.47;;
20318;SDS011;10317;47.254;11.314;2023-09-30T05:09:47;4.95;;;4.03;;
20318;SDS011;10317;47.254;11.314;2023-09-30T05:12:12;6.68;;;3.92;;
20318;SDS011;10317;47.254;11.314;2023-09-30T05:14:38;4.63;;;3.90;;
20318;SDS011;10317;47.254;11.314;2023-09-30T05:17:04;4.82;;;4.28;;
20318;SDS011;10317;47.254;11.314;2023-09-30T05:19:30;4.32;;;3.80;;
20318;SDS011;10317;47.254;11.314;2023-09-30T05:21:59;8.13;;;3.85;;
20318;SDS011;10317;47.254;11.314;2023-09-30T05:24:26;5.07;;;4.60;;
20318;SDS011;10317;47.254;11.314;2023-09-30T05:26:52;5.90;;;4.40;;
20318;SDS011;10317;47.254;11.314;2023-09-30T05:29:18;4.75;;;4.22;;
20318;SDS011;10317;47.254;11.314;2023-09-30T05:31:45;4.18;;;3.83;;
20318;SDS011;10317;47.254;11.314;2023-09-30T05:34:11;5.32;;;4.18;;
20318;SDS011;10317;47.254;11.314;2023-09-30T05:36:36;7.90;;;4.63;;
20318;SDS011;10317;47.254;11.314;2023-09-30T05:39:02;5.32;;;4.28;;
20318;SDS011;10317;47.254;11.314;2023-09-30T05:41:29;5.03;;;4.53;;
20318;SDS011;10317;47.254;11.314;2023-09-30T05:43:58;5.75;;;3.92;;
20318;SDS011;10317;47.254;11.314;2023-09-30T05:46:24;6.03;;;4.22;;
20318;SDS011;10317;47.254;11.314;2023-09-30T05:48:52;3.97;;;3.70;;
20318;SDS011;10317;47.254;11.314;2023-09-30T05:51:18;4.05;;;3.65;;
20318;SDS011;10317;47.254;11.314;2023-09-30T05:53:44;5.15;;;3.97;;
20318;SDS011;10317;47.254;11.314;2023-09-30T05:56:12;5.15;;;4.25;;
20318;SDS011;10317;47.254;11.314;2023-09-30T05:58:40;6.20;;;3.97;;
20318;SDS011;10317;47.254;11.314;2023-09-30T06:01:09;5.53;;;4.40;;
20318;SDS011;10317;47.254;11.314;2023-09-30T06:03:40;6.50;;;4.40;;
20318;SDS011;10317;47.254;11.314;2023-09-30T06:06:12;4.85;;;3.83;;
20318;SDS011;10317;47.254;11.314;2023-09-30T06:08:40;5.70;;;4.47;;
20318;SDS011;10317;47.254;11.314;2023-09-30T06:11:05;5.57;;;4.15;;
20318;SDS011;10317;47.254;11.314;2023-09-30T06:13:34;7.68;;;4.13;;
20318;SDS011;10317;47.254;11.314;2023-09-30T06:16:01;4.43;;;4.00;;
20318;SDS011;10317;47.254;11.314;2023-09-30T06:18:27;4.88;;;4.07;;
20318;SDS011;10317;47.254;11.314;2023-09-30T06:20:53;4.78;;;3.45;;
20318;SDS011;10317;47.254;11.314;2023-09-30T06:23:18;3.88;;;3.58;;
20318;SDS011;10317;47.254;11.314;2023-09-30T06:25:44;6.07;;;3.83;;
20318;SDS011;10317;47.254;11.314;2023-09-30T06:28:10;3.95;;;3.65;;
20318;SDS011;10317;47.254;11.314;2023-09-30T06:30:35;4.20;;;3.67;;
20318;SDS011;10317;47.254;11.314;2023-09-30T06:33:02;4.85;;;4.03;;
20318;SDS011;10317;47.254;11.314;2023-09-30T06:35:30;6.28;;;4.00;;
20318;SDS011;10317;47.254;11.314;2023-09-30T06:37:58;5.38;;;4.05;;
20318;SDS011;10317;47.254;11.314;2023-09-30T06:40:24;5.22;;;4.00;;
20318;SDS011;10317;47.254;11.314;2023-09-30T06:42:50;4.00;;;3.63;;
20318;SDS011;10317;47.254;11.314;2023-09-30T06:45:17;6.40;;;4.30;;
20318;SDS011;10317;47.254;11.314;2023-09-30T06:47:42;3.85;;;3.55;;
20318;SDS011;10317;47.254;11.314;2023-09-30T06:50:11;4.82;;;3.80;;
20318;SDS011;10317;47.254;11.314;2023-09-30T06:52:41;6.88;;;4.47;;
20318;SDS011;10317;47.254;11.314;2023-09-30T06:55:10;4.38;;;3.50;;
20318;SDS011;10317;47.254;11.314;2023-09-30T06:57:39;5.85;;;3.83;;
20318;SDS011;10317;47.254;11.314;2023-09-30T07:00:06;5.07;;;3.58;;
20318;SDS011;10317;47.254;11.314;2023-09-30T07:02:36;6.45;;;3.85;;
20318;SDS011;10317;47.254;11.314;2023-09-30T07:05:09;5.50;;;3.63;;
20318;SDS011;10317;47.254;11.314;2023-09-30T07:07:36;6.25;;;4.00;;
20318;SDS011;10317;47.254;11.314;2023-09-30T07:10:02;4.28;;;3.88;;
20318;SDS011;10317;47.254;11.314;2023-09-30T07:12:32;5.30;;;3.88;;
20318;SDS011;10317;47.254;11.314;2023-09-30T07:15:00;7.18;;;4.03;;
20318;SDS011;10317;47.254;11.314;2023-09-30T07:17:27;5.30;;;4.05;;
20318;SDS011;10317;47.254;11.314;2023-09-30T07:19:53;4.57;;;3.92;;
20318;SDS011;10317;47.254;11.314;2023-09-30T07:22:19;8.00;;;4.32;;
20318;SDS011;10317;47.254;11.314;2023-09-30T07:24:44;6.22;;;3.97;;
20318;SDS011;10317;47.254;11.314;2023-09-30T07:27:10;5.55;;;4.28;;
20318;SDS011;10317;47.254;11.314;2023-09-30T07:29:36;6.57;;;3.97;;
20318;SDS011;10317;47.254;11.314;2023-09-30T07:32:02;5.60;;;4.05;;
20318;SDS011;10317;47.254;11.314;2023-09-30T07:34:28;4.60;;;3.67;;
20318;SDS011;10317;47.254;11.314;2023-09-30T07:36:53;4.65;;;4.22;;
20318;SDS011;10317;47.254;11.314;2023-09-30T07:39:20;4.45;;;3.60;;
20318;SDS011;10317;47.254;11.314;2023-09-30T07:41:46;5.68;;;4.32;;
20318;SDS011;10317;47.254;11.314;2023-09-30T07:44:11;4.22;;;3.83;;
20318;SDS011;10317;47.254;11.314;2023-09-30T07:46:37;4.88;;;3.75;;
20318;SDS011;10317;47.254;11.314;2023-09-30T07:49:03;8.20;;;3.88;;
20318;SDS011;10317;47.254;11.314;2023-09-30T07:51:29;5.03;;;3.47;;
20318;SDS011;10317;47.254;11.314;2023-09-30T07:53:57;4.90;;;3.85;;
20318;SDS011;10317;47.254;11.314;2023-09-30T07:56:23;5.43;;;4.55;;
20318;SDS011;10317;47.254;11.314;2023-09-30T07:58:49;5.35;;;4.25;;
20318;SDS011;10317;47.254;11.314;2023-09-30T08:01:14;4.57;;;4.13;;
20318;SDS011;10317;47.254;11.314;2023-09-30T08:03:40;4.97;;;4.22;;
20318;SDS011;10317;47.254;11.314;2023-09-30T08:06:09;5.90;;;4.30;;
20318;SDS011;10317;47.254;11.314;2023-09-30T08:08:34;4.40;;;3.92;;
20318;SDS011;10317;47.254;11.314;2023-09-30T08:11:01;5.63;;;4.65;;
20318;SDS011;10317;47.254;11.314;2023-09-30T08:13:27;5.50;;;4.10;;
20318;SDS011;10317;47.254;11.314;2023-09-30T08:15:54;5.95;;;4.63;;
20318;SDS011;10317;47.254;11.314;2023-09-30T08:18:20;6.85;;;4.57;;
20318;SDS011;10317;47.254;11.314;2023-09-30T08:20:46;6.32;;;4.53;;
20318;SDS011;10317;47.254;11.314;2023-09-30T08:23:12;6.78;;;4.07;;
20318;SDS011;10317;47.254;11.314;2023-09-30T08:25:38;7.45;;;4.47;;
20318;SDS011;10317;47.254;11.314;2023-09-30T08:28:04;9.05;;;5.30;;
20318;SDS011;10317;47.254;11.314;2023-09-30T08:30:30;5.30;;;4.20;;
20318;SDS011;10317;47.254;11.314;2023-09-30T08:32:58;4.85;;;4.28;;
20318;SDS011;10317;47.254;11.314;2023-09-30T08:35:24;4.38;;;3.80;;
20318;SDS011;10317;47.254;11.314;2023-09-30T08:37:49;9.85;;;5.35;;
20318;SDS011;10317;47.254;11.314;2023-09-30T08:40:19;7.22;;;5.03;;
20318;SDS011;10317;47.254;11.314;2023-09-30T08:42:52;7.15;;;4.65;;
20318;SDS011;10317;47.254;11.314;2023-09-30T08:45:18;6.10;;;4.43;;
20318;SDS011;10317;47.254;11.314;2023-09-30T08:47:44;5.65;;;4.45;;
20318;SDS011;10317;47.254;11.314;2023-09-30T08:50:15;7.35;;;5.45;;
20318;SDS011;10317;47.254;11.314;2023-09-30T08:52:41;15.52;;;9.23;;
20318;SDS011;10317;47.254;11.314;2023-09-30T08:55:09;10.02;;;6.43;;
20318;SDS011;10317;47.254;11.314;2023-09-30T08:57:40;7.80;;;5.22;;
20318;SDS011;10317;47.254;11.314;2023-09-30T09:00:06;10.98;;;5.93;;
20318;SDS011;10317;47.254;11.314;2023-09-30T09:02:36;10.43;;;5.65;;
20318;SDS011;10317;47.254;11.314;2023-09-30T09:05:02;10.93;;;6.20;;
20318;SDS011;10317;47.254;11.314;2023-09-30T09:07:28;14.40;;;6.03;;
20318;SDS011;10317;47.254;11.314;2023-09-30T09:12:33;11.52;;;6.03;;
20318;SDS011;10317;47.254;11.314;2023-09-30T09:14:59;12.25;;;5.63;;
20318;SDS011;10317;47.254;11.314;2023-09-30T09:17:39;11.40;;;5.75;;
20318;SDS011;10317;47.254;11.314;2023-09-30T09:20:09;8.52;;;5.22;;
20318;SDS011;10317;47.254;11.314;2023-09-30T09:22:42;7.28;;;4.95;;
20318;SDS011;10317;47.254;11.314;2023-09-30T09:25:09;10.85;;;5.65;;
20318;SDS011;10317;47.254;11.314;2023-09-30T09:27:36;10.63;;;5.43;;
20318;SDS011;10317;47.254;11.314;2023-09-30T09:35:27;9.95;;;5.63;;
20318;SDS011;10317;47.254;11.314;2023-09-30T09:38:04;9.73;;;5.25;;
20318;SDS011;10317;47.254;11.314;2023-09-30T09:40:34;15.73;;;6.72;;
20318;SDS011;10317;47.254;11.314;2023-09-30T09:43:01;12.88;;;7.13;;
20318;SDS011;10317;47.254;11.314;2023-09-30T09:45:35;16.15;;;7.57;;
20318;SDS011;10317;47.254;11.314;2023-09-30T09:48:03;18.73;;;7.15;;
20318;SDS011;10317;47.254;11.314;2023-09-30T09:50:29;21.08;;;8.52;;
20318;SDS011;10317;47.254;11.314;2023-09-30T09:52:58;22.17;;;8.00;;
20318;SDS011;10317;47.254;11.314;2023-09-30T09:55:25;20.10;;;8.43;;
20318;SDS011;10317;47.254;11.314;2023-09-30T09:57:52;18.08;;;7.95;;
20318;SDS011;10317;47.254;11.314;2023-09-30T10:00:20;19.27;;;8.07;;
20318;SDS011;10317;47.254;11.314;2023-09-30T10:02:48;20.52;;;8.15;;
20318;SDS011;10317;47.254;11.314;2023-09-30T10:05:15;19.63;;;8.52;;
20318;SDS011;10317;47.254;11.314;2023-09-30T10:10:13;21.77;;;8.65;;
20318;SDS011;10317;47.254;11.314;2023-09-30T10:12:41;15.55;;;7.43;;
20318;SDS011;10317;47.254;11.314;2023-09-30T10:17:58;16.52;;;8.02;;
20318;SDS011;10317;47.254;11.314;2023-09-30T10:20:37;16.92;;;7.68;;
20318;SDS011;10317;47.254;11.314;2023-09-30T10:28:39;19.85;;;8.90;;
20318;SDS011;10317;47.254;11.314;2023-09-30T10:31:15;21.80;;;8.70;;
20318;SDS011;10317;47.254;11.314;2023-09-30T10:36:33;16.20;;;8.02;;
20318;SDS011;10317;47.254;11.314;2023-09-30T10:39:12;16.83;;;8.52;;
20318;SDS011;10317;47.254;11.314;2023-09-30T10:46:57;15.27;;;7.72;;
20318;SDS011;10317;47.254;11.314;2023-09-30T10:51:53;18.05;;;9.10;;
20318;SDS011;10317;47.254;11.314;2023-09-30T10:54:23;18.55;;;7.97;;
20318;SDS011;10317;47.254;11.314;2023-09-30T10:56:53;19.02;;;8.73;;
20318;SDS011;10317;47.254;11.314;2023-09-30T10:59:19;20.77;;;9.13;;
20318;SDS011;10317;47.254;11.314;2023-09-30T11:01:49;17.67;;;8.25;;
20318;SDS011;10317;47.254;11.314;2023-09-30T11:04:16;17.73;;;8.27;;
20318;SDS011;10317;47.254;11.314;2023-09-30T11:06:43;15.80;;;8.25;;
20318;SDS011;10317;47.254;11.314;2023-09-30T11:09:14;15.60;;;7.88;;
20318;SDS011;10317;47.254;11.314;2023-09-30T11:11:48;16.88;;;8.15;;
20318;SDS011;10317;47.254;11.314;2023-09-30T11:16:44;22.27;;;8.60;;
20318;SDS011;10317;47.254;11.314;2023-09-30T11:19:11;14.98;;;7.25;;
20318;SDS011;10317;47.254;11.314;2023-09-30T11:21:37;15.02;;;6.75;;
20318;SDS011;10317;47.254;11.314;2023-09-30T11:24:08;15.20;;;7.88;;
20318;SDS011;10317;47.254;11.314;2023-09-30T11:26:34;17.92;;;7.90;;
20318;SDS011;10317;47.254;11.314;2023-09-30T11:31:37;14.90;;;6.95;;
20318;SDS011;10317;47.254;11.314;2023-09-30T11:34:03;16.73;;;7.75;;
20318;SDS011;10317;47.254;11.314;2023-09-30T11:36:29;13.60;;;6.97;;
20318;SDS011;10317;47.254;11.314;2023-09-30T11:38:56;11.68;;;6.47;;
20318;SDS011;10317;47.254;11.314;2023-09-30T11:41:31;14.35;;;6.93;;
20318;SDS011;10317;47.254;11.314;2023-09-30T11:44:02;11.40;;;6.38;;
20318;SDS011;10317;47.254;11.314;2023-09-30T11:46:32;13.85;;;7.05;;
20318;SDS011;10317;47.254;11.314;2023-09-30T11:49:53;17.73;;;7.82;;
20318;SDS011;10317;47.254;11.314;2023-09-30T11:52:25;12.98;;;6.78;;
20318;SDS011;10317;47.254;11.314;2023-09-30T11:54:52;14.55;;;7.30;;
20318;SDS011;10317;47.254;11.314;2023-09-30T11:57:18;11.77;;;7.15;;
20318;SDS011;10317;47.254;11.314;2023-09-30T11:59:44;15.63;;;7.57;;
20318;SDS011;10317;47.254;11.314;2023-09-30T12:02:11;17.00;;;7.68;;
20318;SDS011;10317;47.254;11.314;2023-09-30T12:04:37;15.55;;;7.60;;
20318;SDS011;10317;47.254;11.314;2023-09-30T12:07:04;14.43;;;6.93;;
20318;SDS011;10317;47.254;11.314;2023-09-30T12:09:32;16.67;;;8.05;;
20318;SDS011;10317;47.254;11.314;2023-09-30T12:12:00;13.60;;;7.82;;
20318;SDS011;10317;47.254;11.314;2023-09-30T12:14:26;17.60;;;8.80;;
20318;SDS011;10317;47.254;11.314;2023-09-30T12:16:51;22.27;;;9.55;;
20318;SDS011;10317;47.254;11.314;2023-09-30T12:19:17;24.60;;;11.20;;
20318;SDS011;10317;47.254;11.314;2023-09-30T12:21:43;21.30;;;11.52;;
20318;SDS011;10317;47.254;11.314;2023-09-30T12:24:12;17.48;;;8.43;;
20318;SDS011;10317;47.254;11.314;2023-09-30T12:26:43;17.17;;;8.05;;
20318;SDS011;10317;47.254;11.314;2023-09-30T12:29:13;20.85;;;9.15;;
20318;SDS011;10317;47.254;11.314;2023-09-30T12:31:41;22.33;;;9.05;;
20318;SDS011;10317;47.254;11.314;2023-09-30T12:34:07;20.25;;;8.82;;
20318;SDS011;10317;47.254;11.314;2023-09-30T12:36:32;19.75;;;8.98;;
20318;SDS011;10317;47.254;11.314;2023-09-30T12:38:58;19.83;;;9.20;;
20318;SDS011;10317;47.254;11.314;2023-09-30T12:41:24;21.63;;;9.05;;
20318;SDS011;10317;47.254;11.314;2023-09-30T12:43:49;25.15;;;9.75;;
20318;SDS011;10317;47.254;11.314;2023-09-30T12:46:15;20.10;;;9.52;;
20318;SDS011;10317;47.254;11.314;2023-09-30T12:48:41;21.92;;;9.90;;
20318;SDS011;10317;47.254;11.314;2023-09-30T12:51:07;22.95;;;9.55;;
20318;SDS011;10317;47.254;11.314;2023-09-30T12:53:35;18.38;;;9.55;;
20318;SDS011;10317;47.254;11.314;2023-09-30T12:56:00;26.23;;;10.65;;
20318;SDS011;10317;47.254;11.314;2023-09-30T12:58:26;17.08;;;8.48;;
20318;SDS011;10317;47.254;11.314;2023-09-30T13:00:55;24.65;;;10.32;;
20318;SDS011;10317;47.254;11.314;2023-09-30T13:03:21;19.05;;;8.50;;
20318;SDS011;10317;47.254;11.314;2023-09-30T13:05:48;23.38;;;8.95;;
20318;SDS011;10317;47.254;11.314;2023-09-30T13:08:14;16.05;;;8.15;;
20318;SDS011;10317;47.254;11.314;2023-09-30T13:10:40;20.77;;;8.95;;
20318;SDS011;10317;47.254;11.314;2023-09-30T13:13:05;20.27;;;9.63;;
20318;SDS011;10317;47.254;11.314;2023-09-30T13:15:32;21.00;;;9.15;;
20318;SDS011;10317;47.254;11.314;2023-09-30T13:17:58;18.50;;;8.15;;
20318;SDS011;10317;47.254;11.314;2023-09-30T13:20:24;21.00;;;8.98;;
20318;SDS011;10317;47.254;11.314;2023-09-30T13:22:50;21.67;;;9.25;;
20318;SDS011;10317;47.254;11.314;2023-09-30T13:25:16;16.67;;;8.35;;
20318;SDS011;10317;47.254;11.314;2023-09-30T13:27:41;17.23;;;8.75;;
20318;SDS011;10317;47.254;11.314;2023-09-30T13:30:08;18.50;;;8.15;;
20318;SDS011;10317;47.254;11.314;2023-09-30T13:32:34;20.85;;;8.93;;
20318;SDS011;10317;47.254;11.314;2023-09-30T13:35:06;20.83;;;8.43;;
20318;SDS011;10317;47.254;11.314;2023-09-30T13:37:32;15.52;;;7.32;;
20318;SDS011;10317;47.254;11.314;2023-09-30T13:39:59;17.23;;;7.80;;
20318;SDS011;10317;47.254;11.314;2023-09-30T13:42:25;19.38;;;8.43;;
20318;SDS011;10317;47.254;11.314;2023-09-30T13:44:52;19.15;;;8.50;;
20318;SDS011;10317;47.254;11.314;2023-09-30T13:47:18;16.88;;;8.00;;
20318;SDS011;10317;47.254;11.314;2023-09-30T13:49:43;18.20;;;8.70;;
20318;SDS011;10317;47.254;11.314;2023-09-30T13:52:09;20.40;;;8.70;;
20318;SDS011;10317;47.254;11.314;2023-09-30T13:54:34;22.75;;;8.45;;
20318;SDS011;10317;47.254;11.314;2023-09-30T13:57:00;19.83;;;8.43;;
20318;SDS011;10317;47.254;11.314;2023-09-30T13:59:26;18.83;;;8.02;;
20318;SDS011;10317;47.254;11.314;2023-09-30T14:01:53;20.65;;;8.07;;
20318;SDS011;10317;47.254;11.314;2023-09-30T14:04:18;18.23;;;8.75;;
20318;SDS011;10317;47.254;11.314;2023-09-30T14:06:44;15.90;;;7.90;;
20318;SDS011;10317;47.254;11.314;2023-09-30T14:09:09;19.80;;;8.55;;
20318;SDS011;10317;47.254;11.314;2023-09-30T14:11:40;16.85;;;7.90;;
20318;SDS011;10317;47.254;11.314;2023-09-30T14:14:07;16.08;;;8.05;;
20318;SDS011;10317;47.254;11.314;2023-09-30T14:16:34;19.38;;;8.50;;
20318;SDS011;10317;47.254;11.314;2023-09-30T14:19:01;17.95;;;8.18;;
20318;SDS011;10317;47.254;11.314;2023-09-30T14:21:26;19.80;;;9.02;;
20318;SDS011;10317;47.254;11.314;2023-09-30T14:23:53;22.50;;;9.10;;
20318;SDS011;10317;47.254;11.314;2023-09-30T14:26:19;21.38;;;8.77;;
20318;SDS011;10317;47.254;11.314;2023-09-30T14:28:44;23.98;;;11.23;;
20318;SDS011;10317;47.254;11.314;2023-09-30T14:31:10;26.63;;;11.80;;
20318;SDS011;10317;47.254;11.314;2023-09-30T14:33:36;23.85;;;9.90;;
20318;SDS011;10317;47.254;11.314;2023-09-30T14:36:02;23.30;;;8.60;;
20318;SDS011;10317;47.254;11.314;2023-09-30T14:38:30;21.63;;;8.23;;
20318;SDS011;10317;47.254;11.314;2023-09-30T14:40:56;19.55;;;8.98;;
20318;SDS011;10317;47.254;11.314;2023-09-30T14:43:22;19.17;;;7.75;;
20318;SDS011;10317;47.254;11.314;2023-09-30T14:45:48;17.45;;;7.75;;
20318;SDS011;10317;47.254;11.314;2023-09-30T14:48:14;16.27;;;8.43;;
20318;SDS011;10317;47.254;11.314;2023-09-30T14:51:00;22.95;;;7.68;;
20318;SDS011;10317;47.254;11.314;2023-09-30T14:53:25;24.38;;;9.05;;
20318;SDS011;10317;47.254;11.314;2023-09-30T14:55:51;17.90;;;8.55;;
20318;SDS011;10317;47.254;11.314;2023-09-30T14:58:17;17.85;;;8.20;;
20318;SDS011;10317;47.254;11.314;2023-09-30T15:00:43;22.67;;;8.48;;
20318;SDS011;10317;47.254;11.314;2023-09-30T15:03:09;24.63;;;8.27;;